createdAt,value
2019-05-17T00:02:17.852Z,99.90
2019-05-17T00:04:47.751Z,99.90
2019-05-17T00:07:17.564Z,99.90
2019-05-17T00:09:47.978Z,99.90
2019-05-17T00:12:17.898Z,99.90
2019-05-17T00:14:47.851Z,99.90
2019-05-17T00:17:17.724Z,99.90
2019-05-17T00:19:47.555Z,99.90
2019-05-17T00:22:17.665Z,99.90
2019-05-17T00:24:47.842Z,99.90
2019-05-17T00:27:17.810Z,99.90
2019-05-17T00:29:47.804Z,99.90
2019-05-17T00:32:17.619Z,99.90
2019-05-17T00:34:47.858Z,99.90
2019-05-17T00:37:17.756Z,99.90
2019-05-17T00:39:47.788Z,99.90
2019-05-17T00:42:17.695Z,99.90
2019-05-17T00:44:47.550Z,99.90
2019-05-17T00:47:19.120Z,99.90
2019-05-17T00:49:48.960Z,99.90
2019-05-17T00:52:18.991Z,99.90
2019-05-17T00:54:48.995Z,99.90
2019-05-17T00:57:19.011Z,99.90
2019-05-17T00:59:49.031Z,99.90
2019-05-17T01:02:18.945Z,99.90
2019-05-17T01:04:48.951Z,99.90
2019-05-17T01:07:18.984Z,99.90
2019-05-17T01:09:48.996Z,99.90
2019-05-17T01:12:19.017Z,99.90
2019-05-17T01:14:48.903Z,99.90
2019-05-17T01:17:18.944Z,99.90
2019-05-17T01:19:48.848Z,99.90
2019-05-17T01:22:18.755Z,99.90
2019-05-17T01:24:48.488Z,99.90
2019-05-17T01:27:18.488Z,99.90
2019-05-17T01:29:48.536Z,99.90
2019-05-17T01:32:18.537Z,99.90
2019-05-17T01:34:48.544Z,99.90
2019-05-17T01:37:18.433Z,99.90
2019-05-17T01:39:48.368Z,99.90
2019-05-17T01:42:18.317Z,99.90
2019-05-17T01:44:48.191Z,99.90
2019-05-17T01:47:18.102Z,99.90
2019-05-17T01:49:48.027Z,99.90
2019-05-17T01:52:17.811Z,99.90
2019-05-17T01:54:47.852Z,99.90
2019-05-17T01:57:17.744Z,99.90
2019-05-17T01:59:47.779Z,99.90
2019-05-17T02:02:21.516Z,99.90
2019-05-17T02:04:52.455Z,99.90
2019-05-17T02:07:22.436Z,99.90
2019-05-17T02:09:52.451Z,99.90
2019-05-17T02:12:22.262Z,99.90
2019-05-17T02:14:52.183Z,99.90
2019-05-17T02:17:22.095Z,99.90
2019-05-17T02:19:51.884Z,99.90
2019-05-17T02:22:21.924Z,99.90
2019-05-17T02:24:52.028Z,99.90
2019-05-17T02:27:25.353Z,99.90
2019-05-17T02:29:55.502Z,99.90
2019-05-17T02:32:25.323Z,99.90
2019-05-17T02:34:55.383Z,99.90
2019-05-17T02:37:25.149Z,99.90
2019-05-17T02:40:02.762Z,99.90
2019-05-17T02:42:26.865Z,99.90
2019-05-17T02:44:56.859Z,99.90
2019-05-17T02:47:26.902Z,99.90
2019-05-17T02:49:56.697Z,99.90
2019-05-17T02:52:27.825Z,99.90
2019-05-17T02:54:57.762Z,99.90
2019-05-17T02:57:27.676Z,99.90
2019-05-17T02:59:57.680Z,99.90
2019-05-17T03:02:28.238Z,99.90
2019-05-17T03:04:58.750Z,99.90
2019-05-17T03:07:32.449Z,99.90
2019-05-17T03:10:13.900Z,99.90
2019-05-17T03:12:33.109Z,99.90
2019-05-17T03:15:04.032Z,99.90
2019-05-17T03:17:34.369Z,99.90
2019-05-17T03:20:04.526Z,99.90
2019-05-17T03:22:35.753Z,99.90
2019-05-17T03:25:05.844Z,99.90
2019-05-17T03:27:35.662Z,99.90
2019-05-17T03:30:06.073Z,99.90
2019-05-17T03:32:37.004Z,99.90
2019-05-17T03:35:07.948Z,99.90
2019-05-17T03:37:38.298Z,99.90
2019-05-17T03:40:23.418Z,99.90
2019-05-17T03:42:42.591Z,99.90
2019-05-17T03:45:13.809Z,99.90
2019-05-17T03:47:44.872Z,99.90
2019-05-17T03:50:15.251Z,99.90
2019-05-17T03:52:45.231Z,99.90
2019-05-17T03:55:15.262Z,99.90
2019-05-17T03:57:45.281Z,99.90
2019-05-17T04:00:15.665Z,99.90
2019-05-17T04:02:45.735Z,99.90
2019-05-17T04:05:15.768Z,99.90
2019-05-17T04:07:45.736Z,99.90
2019-05-17T04:10:15.970Z,99.90
2019-05-17T04:12:45.870Z,99.90
2019-05-17T04:15:16.293Z,99.90
2019-05-17T04:17:46.300Z,99.90
2019-05-17T04:20:16.325Z,99.90
2019-05-17T04:22:46.334Z,99.90
2019-05-17T04:25:16.149Z,99.90
2019-05-17T04:27:46.085Z,99.90
2019-05-17T04:30:15.980Z,99.90
2019-05-17T04:32:45.901Z,99.90
2019-05-17T04:35:15.868Z,99.90
2019-05-17T04:37:45.936Z,99.90
2019-05-17T04:40:16.183Z,99.90
2019-05-17T04:42:46.178Z,99.90
2019-05-17T04:45:16.193Z,99.90
2019-05-17T04:47:46.098Z,99.90
2019-05-17T04:50:16.329Z,99.90
2019-05-17T04:52:46.346Z,99.90
2019-05-17T04:55:16.344Z,99.90
2019-05-17T04:57:46.364Z,99.90
2019-05-17T05:00:17.564Z,99.90
2019-05-17T05:02:47.572Z,99.90
2019-05-17T05:05:17.669Z,99.90
2019-05-17T05:07:47.540Z,99.90
2019-05-17T05:10:17.576Z,99.90
2019-05-17T05:12:47.597Z,99.90
2019-05-17T05:15:22.540Z,99.90
2019-05-17T05:17:52.772Z,99.90
2019-05-17T05:20:22.874Z,99.90
2019-05-17T05:22:52.976Z,99.90
2019-05-17T05:25:22.900Z,99.90
2019-05-17T05:27:52.928Z,99.90
2019-05-17T05:30:22.737Z,99.90
2019-05-17T05:32:52.736Z,99.90
2019-05-17T05:35:22.855Z,99.90
2019-05-17T05:37:52.767Z,99.90
2019-05-17T05:40:22.908Z,99.90
2019-05-17T05:42:52.795Z,99.90
2019-05-17T05:45:22.824Z,99.90
2019-05-17T05:47:52.929Z,99.90
2019-05-17T05:50:23.049Z,99.90
2019-05-17T05:52:52.972Z,99.90
2019-05-17T05:55:23.330Z,99.90
2019-05-17T05:57:53.531Z,99.90
2019-05-17T06:00:23.632Z,99.90
2019-05-17T06:02:53.638Z,99.90
2019-05-17T06:05:23.699Z,99.90
2019-05-17T06:07:53.688Z,99.90
2019-05-17T06:10:23.672Z,99.90
2019-05-17T06:12:53.711Z,99.90
2019-05-17T06:15:23.919Z,99.90
2019-05-17T06:17:53.849Z,99.90
2019-05-17T06:20:23.853Z,99.90
2019-05-17T06:22:55.587Z,99.90
2019-05-17T06:25:25.505Z,99.90
2019-05-17T06:27:55.563Z,99.90
2019-05-17T06:30:25.539Z,99.90
2019-05-17T06:32:55.588Z,99.90
2019-05-17T06:35:25.640Z,99.90
2019-05-17T06:37:55.707Z,99.90
2019-05-17T06:40:25.736Z,99.90
2019-05-17T06:42:55.636Z,99.90
2019-05-17T06:45:25.660Z,99.90
2019-05-17T06:47:55.443Z,99.90
2019-05-17T06:50:25.497Z,99.90
2019-05-17T06:52:56.424Z,99.90
2019-05-17T06:55:26.434Z,99.90
2019-05-17T06:57:56.240Z,99.90
2019-05-17T07:00:26.260Z,99.90
2019-05-17T07:02:56.092Z,99.90
2019-05-17T07:05:29.604Z,99.90
2019-05-17T07:08:00.293Z,99.90
2019-05-17T07:10:30.520Z,99.90
2019-05-17T07:13:01.882Z,99.90
2019-05-17T07:15:43.896Z,99.90
2019-05-17T07:18:03.969Z,99.90
2019-05-17T07:20:33.848Z,99.90
2019-05-17T07:23:03.892Z,99.90
2019-05-17T07:25:33.828Z,99.90
2019-05-17T07:28:03.705Z,99.90
2019-05-17T07:30:34.252Z,99.90
2019-05-17T07:33:04.162Z,99.90
2019-05-17T07:35:34.174Z,99.90
2019-05-17T07:38:04.111Z,99.90
2019-05-17T07:40:34.105Z,99.90
2019-05-17T07:43:10.565Z,99.70
2019-05-17T07:45:35.573Z,99.40
2019-05-17T07:48:05.479Z,99.40
2019-05-17T07:50:35.499Z,99.00
2019-05-17T07:53:05.171Z,99.10
2019-05-17T07:55:34.784Z,97.30
2019-05-17T07:58:04.718Z,98.70
2019-05-17T08:00:34.771Z,98.40
2019-05-17T08:03:04.402Z,98.50
2019-05-17T08:05:34.012Z,98.50
2019-05-17T08:08:03.613Z,97.00
2019-05-17T08:10:33.213Z,97.40
2019-05-17T08:13:02.867Z,97.80
2019-05-17T08:15:32.515Z,97.10
2019-05-17T08:18:02.129Z,96.00
2019-05-17T08:20:31.770Z,96.30
2019-05-17T08:23:01.427Z,96.40
2019-05-17T08:25:31.051Z,96.80
2019-05-17T08:28:00.756Z,96.00
2019-05-17T08:30:30.558Z,96.00
2019-05-17T08:33:00.882Z,95.30
2019-05-17T08:35:30.978Z,95.20
2019-05-17T08:38:00.773Z,95.20
2019-05-17T08:40:30.830Z,95.10
2019-05-17T08:43:00.759Z,95.30
2019-05-17T08:45:30.564Z,95.90
2019-05-17T08:48:00.499Z,94.80
2019-05-17T08:50:30.356Z,94.80
2019-05-17T08:53:00.157Z,94.70
2019-05-17T08:55:30.106Z,94.30
2019-05-17T08:58:01.057Z,94.20
2019-05-17T09:00:31.574Z,93.80
2019-05-17T09:03:02.963Z,93.40
2019-05-17T09:05:33.018Z,93.30
2019-05-17T09:08:03.028Z,93.30
2019-05-17T09:10:33.256Z,91.90
2019-05-17T09:13:03.368Z,91.50
2019-05-17T09:15:33.272Z,90.90
2019-05-17T09:18:03.344Z,90.80
2019-05-17T09:20:33.192Z,91.60
2019-05-17T09:23:03.317Z,91.50
2019-05-17T09:25:33.228Z,91.50
2019-05-17T09:28:03.354Z,90.70
2019-05-17T09:30:33.492Z,90.00
2019-05-17T09:33:03.392Z,88.70
2019-05-17T09:35:33.327Z,89.40
2019-05-17T09:38:03.207Z,89.90
2019-05-17T09:40:33.160Z,88.40
2019-05-17T09:43:02.989Z,88.40
2019-05-17T09:45:32.952Z,89.30
2019-05-17T09:48:02.896Z,87.70
2019-05-17T09:50:32.876Z,88.40
2019-05-17T09:53:02.746Z,88.10
2019-05-17T09:55:32.512Z,89.20
2019-05-17T09:58:03.408Z,89.20
2019-05-17T10:00:34.214Z,90.20
2019-05-17T10:03:04.074Z,90.30
2019-05-17T10:05:34.012Z,91.00
2019-05-17T10:08:03.912Z,90.90
2019-05-17T10:10:33.953Z,91.10
2019-05-17T10:13:03.794Z,91.00
2019-05-17T10:15:33.668Z,91.70
2019-05-17T10:18:03.610Z,90.80
2019-05-17T10:20:33.525Z,91.70
2019-05-17T10:23:03.323Z,90.70
2019-05-17T10:25:33.248Z,90.20
2019-05-17T10:28:03.110Z,89.50
2019-05-17T10:30:32.839Z,88.50
2019-05-17T10:33:02.765Z,88.60
2019-05-17T10:35:32.491Z,87.50
2019-05-17T10:38:02.118Z,88.20
2019-05-17T10:40:31.784Z,87.60
2019-05-17T10:43:01.451Z,85.40
2019-05-17T10:45:31.608Z,84.70
2019-05-17T10:48:01.611Z,86.10
2019-05-17T10:50:31.535Z,86.00
2019-05-17T10:53:01.454Z,83.50
2019-05-17T10:55:31.456Z,83.70
2019-05-17T10:58:01.574Z,85.40
2019-05-17T11:00:31.716Z,85.60
2019-05-17T11:03:01.365Z,86.50
2019-05-17T11:05:31.003Z,86.90
2019-05-17T11:08:00.627Z,88.30
2019-05-17T11:10:30.752Z,88.90
2019-05-17T11:13:00.399Z,87.30
2019-05-17T11:15:30.024Z,88.40
2019-05-17T11:17:59.857Z,89.10
2019-05-17T11:20:29.568Z,88.30
2019-05-17T11:22:59.216Z,89.80
2019-05-17T11:25:28.818Z,88.60
2019-05-17T11:28:00.943Z,89.30
2019-05-17T11:30:30.633Z,90.20
2019-05-17T11:33:00.232Z,91.00
2019-05-17T11:35:29.844Z,90.60
2019-05-17T11:38:00.579Z,91.00
2019-05-17T11:40:30.590Z,91.60
2019-05-17T11:43:00.208Z,91.00
2019-05-17T11:45:32.669Z,91.00
2019-05-17T11:48:01.232Z,90.80
2019-05-17T11:50:30.860Z,91.10
2019-05-17T11:53:00.801Z,91.20
2019-05-17T11:55:30.729Z,90.90
2019-05-17T11:58:02.478Z,91.20
2019-05-17T12:00:32.584Z,90.50
2019-05-17T12:03:02.608Z,90.40
2019-05-17T12:05:33.980Z,90.70
2019-05-17T12:08:04.020Z,90.40
2019-05-17T12:10:33.838Z,90.50
2019-05-17T12:13:06.059Z,90.40
2019-05-17T12:15:44.357Z,90.70
2019-05-17T12:18:07.104Z,90.60
2019-05-17T12:20:36.735Z,90.10
2019-05-17T12:23:06.416Z,90.10
2019-05-17T12:25:36.345Z,90.00
2019-05-17T12:28:09.108Z,90.20
2019-05-17T12:30:39.037Z,90.30
2019-05-17T12:33:09.047Z,90.50
2019-05-17T12:35:38.960Z,90.50
2019-05-17T12:38:08.887Z,90.60
2019-05-17T12:40:38.803Z,91.10
2019-05-17T12:43:08.496Z,91.00
2019-05-17T12:45:38.312Z,91.40
2019-05-17T12:48:08.027Z,91.90
2019-05-17T12:50:37.922Z,92.10
2019-05-17T12:53:07.981Z,92.30
2019-05-17T12:55:37.801Z,92.40
2019-05-17T12:58:07.712Z,92.40
2019-05-17T13:00:37.600Z,92.90
2019-05-17T13:03:07.610Z,93.00
2019-05-17T13:05:37.272Z,92.50
2019-05-17T13:08:09.141Z,93.20
2019-05-17T13:10:41.444Z,93.10
2019-05-17T13:13:11.256Z,93.20
2019-05-17T13:15:41.172Z,93.70
2019-05-17T13:18:11.289Z,94.20
2019-05-17T13:20:41.086Z,94.60
2019-05-17T13:23:11.230Z,95.10
2019-05-17T13:25:41.208Z,95.30
2019-05-17T13:28:11.264Z,95.30
2019-05-17T13:30:41.270Z,95.90
2019-05-17T13:33:11.290Z,96.20
2019-05-17T13:35:41.424Z,96.20
2019-05-17T13:38:11.440Z,96.50
2019-05-17T13:40:41.440Z,96.40
2019-05-17T13:43:11.339Z,96.60
2019-05-17T13:45:43.773Z,97.30
2019-05-17T13:48:12.824Z,97.60
2019-05-17T13:50:42.940Z,97.70
2019-05-17T13:53:13.040Z,99.90
2019-05-17T13:55:42.953Z,99.10
2019-05-17T13:58:13.110Z,99.90
2019-05-17T14:00:42.986Z,99.90
2019-05-17T14:03:13.014Z,99.90
2019-05-17T14:05:43.050Z,99.90
2019-05-17T14:08:13.043Z,99.90
2019-05-17T14:10:43.061Z,99.90
2019-05-17T14:13:12.862Z,99.90
2019-05-17T14:15:42.914Z,99.90
2019-05-17T14:18:12.812Z,99.90
2019-05-17T14:20:42.800Z,99.90
2019-05-17T14:23:12.663Z,99.90
2019-05-17T14:25:42.305Z,99.90
2019-05-17T14:28:12.161Z,99.90
2019-05-17T14:30:42.252Z,99.90
2019-05-17T14:33:12.287Z,99.90
2019-05-17T14:35:42.289Z,99.90
2019-05-17T14:38:12.214Z,99.90
2019-05-17T14:43:13.753Z,99.90
2019-05-17T14:45:43.904Z,99.90
2019-05-17T14:48:13.925Z,99.90
2019-05-17T14:50:43.945Z,99.90
2019-05-17T14:53:13.955Z,99.90
2019-05-17T14:55:43.840Z,99.90
2019-05-17T14:58:13.909Z,99.90
2019-05-17T15:00:43.683Z,99.90
2019-05-17T15:03:13.606Z,99.90
2019-05-17T15:05:43.492Z,99.90
2019-05-17T15:08:13.532Z,99.90
2019-05-17T15:10:43.358Z,99.90
2019-05-17T15:13:13.244Z,99.90
2019-05-17T15:15:43.077Z,99.90
2019-05-17T15:18:14.872Z,99.90
2019-05-17T15:20:44.764Z,99.90
2019-05-17T15:23:14.856Z,99.90
2019-05-17T15:25:44.865Z,99.90
2019-05-17T15:28:17.960Z,99.90
2019-05-17T15:30:47.976Z,99.90
2019-05-17T15:33:17.780Z,99.90
2019-05-17T15:35:47.805Z,99.90
2019-05-17T15:38:17.742Z,99.90
2019-05-17T15:40:47.733Z,99.90
2019-05-17T15:43:17.530Z,99.90
2019-05-17T15:45:47.456Z,99.90
2019-05-17T15:48:17.464Z,99.90
2019-05-17T15:50:47.380Z,99.90
2019-05-17T15:53:17.411Z,99.90
2019-05-17T15:55:47.263Z,99.90
2019-05-17T15:58:17.145Z,99.90
2019-05-17T16:00:47.144Z,99.90
2019-05-17T16:03:17.167Z,99.90
2019-05-17T16:05:47.068Z,99.90
2019-05-17T16:08:17.097Z,99.90
2019-05-17T16:13:18.544Z,99.90
2019-05-17T16:15:48.678Z,99.90
2019-05-17T16:18:18.688Z,99.90
2019-05-17T16:20:48.707Z,99.90
2019-05-17T16:23:18.713Z,99.90
2019-05-17T16:25:48.756Z,99.90
2019-05-17T16:28:18.674Z,99.90
2019-05-17T16:30:48.670Z,99.90
2019-05-17T16:33:21.688Z,99.90
2019-05-17T16:35:51.572Z,99.90
2019-05-17T16:38:21.522Z,99.90
2019-05-17T16:40:51.379Z,99.90
2019-05-17T16:43:21.308Z,99.90
2019-05-17T16:45:51.108Z,99.90
2019-05-17T16:48:21.119Z,99.90
2019-05-17T16:50:51.046Z,99.90
2019-05-17T16:53:21.067Z,99.90
2019-05-17T16:55:50.864Z,99.90
2019-05-17T16:58:20.892Z,99.90
2019-05-17T17:00:51.101Z,99.90
2019-05-17T17:03:20.940Z,99.90
2019-05-17T17:05:50.987Z,99.90
2019-05-17T17:08:20.951Z,99.90
2019-05-17T17:10:50.959Z,99.90
2019-05-17T17:13:32.434Z,99.90
2019-05-17T17:15:52.652Z,99.90
2019-05-17T17:18:22.537Z,99.90
2019-05-17T17:20:52.572Z,99.90
2019-05-17T17:23:22.573Z,99.90
2019-05-17T17:25:52.608Z,99.90
2019-05-17T17:28:25.508Z,99.90
2019-05-17T17:30:54.380Z,99.90
2019-05-17T17:33:24.496Z,99.90
2019-05-17T17:35:54.613Z,99.90
2019-05-17T17:38:24.528Z,99.90
2019-05-17T17:40:55.040Z,99.90
2019-05-17T17:43:25.092Z,99.90
2019-05-17T17:45:54.973Z,99.90
2019-05-17T17:48:24.920Z,99.90
2019-05-17T17:50:54.814Z,99.90
2019-05-17T17:53:24.858Z,99.90
2019-05-17T17:55:54.864Z,99.90
2019-05-17T17:58:24.864Z,99.90
2019-05-17T18:00:54.993Z,99.90
2019-05-17T18:03:24.616Z,99.90
2019-05-17T18:05:54.304Z,99.90
2019-05-17T18:08:24.436Z,99.90
2019-05-17T18:10:54.124Z,99.90
2019-05-17T18:13:24.240Z,99.90
2019-05-17T18:15:54.256Z,99.90
2019-05-17T18:18:24.144Z,99.90
2019-05-17T18:20:54.158Z,99.90
2019-05-17T18:23:23.981Z,99.90
2019-05-17T18:25:54.101Z,99.90
2019-05-17T18:28:24.034Z,99.90
2019-05-17T18:30:53.924Z,99.90
2019-05-17T18:33:23.964Z,99.90
2019-05-17T18:35:53.878Z,99.90
2019-05-17T18:38:26.040Z,99.90
2019-05-17T18:40:55.853Z,99.90
2019-05-17T18:43:25.744Z,99.90
2019-05-17T18:45:55.372Z,99.90
2019-05-17T18:48:25.376Z,99.90
2019-05-17T18:50:55.428Z,99.90
2019-05-17T18:53:25.304Z,99.90
2019-05-17T18:55:55.345Z,99.90
2019-05-17T18:58:25.356Z,99.90
2019-05-17T19:00:55.455Z,99.90
2019-05-17T19:03:25.373Z,99.90
2019-05-17T19:05:55.406Z,99.90
2019-05-17T19:08:25.418Z,99.90
2019-05-17T19:10:55.444Z,99.90
2019-05-17T19:13:25.353Z,99.90
2019-05-17T19:15:55.368Z,99.90
2019-05-17T19:18:25.277Z,99.90
2019-05-17T19:20:55.297Z,99.90
2019-05-17T19:23:25.980Z,99.90
2019-05-17T19:25:56.367Z,99.90
2019-05-17T19:28:26.340Z,99.90
2019-05-17T19:30:56.511Z,99.90
2019-05-17T19:33:26.550Z,99.90
2019-05-17T19:35:56.499Z,99.90
2019-05-17T19:38:26.649Z,99.90
2019-05-17T19:40:56.564Z,99.90
2019-05-17T19:43:26.468Z,99.90
2019-05-17T19:45:56.365Z,99.90
2019-05-17T19:48:26.291Z,99.90
2019-05-17T19:50:56.052Z,99.90
2019-05-17T19:53:25.696Z,99.90
2019-05-17T19:55:55.620Z,99.90
2019-05-17T19:58:25.721Z,99.90
2019-05-17T20:00:55.661Z,99.90
2019-05-17T20:03:25.580Z,99.90
2019-05-17T20:05:55.472Z,99.90
2019-05-17T20:08:25.480Z,99.90
2019-05-17T20:10:55.190Z,99.90
2019-05-17T20:13:24.926Z,99.90
2019-05-17T20:15:54.932Z,99.90
2019-05-17T20:18:25.044Z,99.90
2019-05-17T20:20:54.681Z,99.90
2019-05-17T20:23:24.318Z,99.90
2019-05-17T20:25:54.176Z,99.90
2019-05-17T20:28:24.177Z,99.90
2019-05-17T20:30:54.101Z,99.90
2019-05-17T20:33:24.220Z,99.90
2019-05-17T20:35:54.241Z,99.90
2019-05-17T20:38:24.137Z,99.90
2019-05-17T20:40:54.270Z,99.90
2019-05-17T20:43:25.535Z,99.90
2019-05-17T20:45:55.616Z,99.90
2019-05-17T20:48:26.161Z,99.90
2019-05-17T20:50:56.268Z,99.90
2019-05-17T20:53:26.295Z,99.90
2019-05-17T20:55:56.508Z,99.90
2019-05-17T20:58:26.431Z,99.90
2019-05-17T21:00:56.443Z,99.90
2019-05-17T21:03:26.344Z,99.90
2019-05-17T21:05:56.277Z,99.90
2019-05-17T21:08:26.919Z,99.90
2019-05-17T21:10:59.985Z,99.90
2019-05-17T21:13:29.801Z,99.90
2019-05-17T21:15:59.908Z,99.90
2019-05-17T21:18:29.844Z,99.90
2019-05-17T21:20:59.848Z,99.90
2019-05-17T21:23:29.764Z,99.90
2019-05-17T21:25:59.656Z,99.90
2019-05-17T21:28:29.812Z,99.90
2019-05-17T21:30:59.712Z,99.90
2019-05-17T21:33:29.827Z,99.90
2019-05-17T21:35:59.863Z,99.90
2019-05-17T21:38:29.859Z,99.90
2019-05-17T21:41:00.920Z,99.90
2019-05-17T21:43:30.818Z,99.90
2019-05-17T21:46:04.386Z,99.90
2019-05-17T21:48:34.227Z,99.90
2019-05-17T21:51:04.155Z,99.90
2019-05-17T21:53:34.156Z,99.90
2019-05-17T21:56:04.068Z,99.90
2019-05-17T21:58:33.744Z,99.90
2019-05-17T22:01:17.950Z,99.90
2019-05-17T22:03:48.146Z,99.90
2019-05-17T22:06:18.044Z,99.90
2019-05-17T22:08:48.129Z,99.90
2019-05-17T22:11:18.299Z,99.90
2019-05-17T22:13:48.057Z,99.90
2019-05-17T22:16:19.924Z,99.90
2019-05-17T22:18:49.992Z,99.90
2019-05-17T22:21:20.014Z,99.90
2019-05-17T22:23:50.100Z,99.90
2019-05-17T22:26:19.920Z,99.90
2019-05-17T22:28:50.052Z,99.90
2019-05-17T22:31:20.068Z,99.90
2019-05-17T22:33:49.968Z,99.90
2019-05-17T22:36:19.597Z,99.90
2019-05-17T22:38:49.281Z,99.90
2019-05-17T22:41:18.897Z,99.90
2019-05-17T22:43:48.603Z,99.90
2019-05-17T22:46:27.308Z,99.90
2019-05-17T22:48:50.159Z,99.90
2019-05-17T22:51:20.187Z,99.90
2019-05-17T22:53:49.820Z,99.90
2019-05-17T22:56:19.711Z,99.90
2019-05-17T22:58:49.848Z,99.90
2019-05-17T23:01:19.828Z,99.90
2019-05-17T23:03:49.807Z,99.90
2019-05-17T23:06:19.800Z,99.90
2019-05-17T23:08:49.672Z,99.90
2019-05-17T23:11:19.717Z,99.90
2019-05-17T23:13:49.603Z,99.90
2019-05-17T23:16:19.648Z,99.90
2019-05-17T23:19:08.293Z,99.90
2019-05-17T23:21:38.500Z,99.90
2019-05-17T23:24:08.813Z,99.90
2019-05-17T23:26:38.859Z,99.90
2019-05-17T23:29:08.644Z,99.90
2019-05-17T23:31:38.776Z,99.90
2019-05-17T23:34:08.575Z,99.90
2019-05-17T23:36:38.487Z,99.90
2019-05-17T23:39:09.115Z,99.90
2019-05-17T23:41:39.127Z,99.90
2019-05-17T23:44:09.064Z,99.90
2019-05-17T23:46:38.969Z,99.90
2019-05-17T23:49:08.909Z,99.90
2019-05-17T23:51:38.908Z,99.90
2019-05-17T23:54:08.804Z,99.90
2019-05-17T23:56:38.839Z,99.90
2019-05-17T23:59:08.762Z,99.90
